Time;durP1;ratioP1;P1;durP2;ratioP2;P2;SDS_P1;SDS_P2;PMS_P1;PMS_P2;Temp;Humidity;BMP_temperature;BMP_pressure;BME280_temperature;BME280_humidity;BME280_pressure;Samples;Min_cycle;Max_cycle;Signal;HPM_P1;HPM_P2
2021/07/17 00:01:37;;;;;;;;;;;;;;;25.48;69.52;98794.20;1873489;76;20339;-65
2021/07/17 00:04:12;;;;;;;;;;;;;;;25.48;69.83;98787.11;1892906;76;20207;-64
2021/07/17 00:06:46;;;;;;;;;;;;;;;25.52;69.89;98794.43;1873464;76;20098;-63
2021/07/17 00:09:25;;;;;;;;;;;;;;;25.53;69.95;98782.91;1873318;76;20102;-63
2021/07/17 00:12:00;;;;;;;;;;;;;;;25.55;70.07;98781.05;1873377;76;20093;-62
2021/07/17 00:14:34;;;;;;;;;;;;;;;25.59;70.11;98783.89;1873600;76;20208;-63
2021/07/17 00:17:09;;;;;;;;;;;;;;;25.63;70.02;98785.45;1873422;76;20094;-62
2021/07/17 00:19:45;;;;;;;;;;;;;;;25.67;69.86;98785.69;1873227;76;20098;-62
2021/07/17 00:22:20;;;;;;;;;;;;;;;25.68;69.73;98782.09;1873405;76;20094;-62
2021/07/17 00:24:55;;;;;;;;;;;;;;;25.70;69.59;98785.52;1892800;76;20183;-62
2021/07/17 00:27:30;;;;;;;;;;;;;;;25.69;69.55;98782.94;1892807;76;20093;-62
2021/07/17 00:30:13;;;;;;;;;;;;;;;25.66;69.50;98778.67;1892723;76;20121;-63
2021/07/17 00:32:48;;;;;;;;;;;;;;;25.62;69.52;98786.40;1873489;76;20094;-63
2021/07/17 00:35:42;;;;;;;;;;;;;;;25.57;69.56;98781.83;1892698;76;20101;-62
2021/07/17 00:38:16;;;;;;;;;;;;;;;25.52;69.67;98778.58;1892731;76;20441;-62
2021/07/17 00:40:50;;;;;;;;;;;;;;;25.47;69.82;98780.61;1892809;76;20203;-62
2021/07/17 00:43:25;;;;;;;;;;;;;;;25.45;69.86;98773.22;1873476;76;20347;-62
2021/07/17 00:45:59;;;;;;;;;;;;;;;25.41;69.97;98771.20;1892797;76;20211;-63
2021/07/17 00:48:34;;;;;;;;;;;;;;;25.37;70.05;98771.46;1873528;76;20204;-64
2021/07/17 00:51:12;;;;;;;;;;;;;;;25.33;70.14;98773.39;1873235;76;20105;-63
2021/07/17 00:53:47;;;;;;;;;;;;;;;25.28;70.30;98776.27;1873423;76;20093;-60
2021/07/17 00:56:42;;;;;;;;;;;;;;;25.24;70.46;98777.83;1892742;76;20097;-64
2021/07/17 00:59:19;;;;;;;;;;;;;;;25.18;70.59;98775.05;1892903;76;20097;-64
2021/07/17 01:01:55;;;;;;;;;;;;;;;25.12;70.76;98774.86;1892793;76;20343;-63
2021/07/17 01:04:49;;;;;;;;;;;;;;;25.06;71.03;98775.63;1873436;76;20211;-63
2021/07/17 01:07:45;;;;;;;;;;;;;;;25.02;71.35;98771.46;1892731;76;20097;-62
2021/07/17 01:10:27;;;;;;;;;;;;;;;24.99;71.65;98774.27;1892735;76;20120;-62
2021/07/17 01:13:03;;;;;;;;;;;;;;;24.97;71.84;98774.80;1873548;76;20105;-62
2021/07/17 01:15:38;;;;;;;;;;;;;;;24.96;71.99;98778.36;1873325;76;20098;-63
2021/07/17 01:18:13;;;;;;;;;;;;;;;24.91;72.11;98772.86;1892790;76;20204;-64
2021/07/17 01:20:48;;;;;;;;;;;;;;;24.89;72.32;98770.77;1892837;76;20096;-63
2021/07/17 01:23:25;;;;;;;;;;;;;;;24.87;72.42;98771.30;1873255;76;20093;-64
2021/07/17 01:26:18;;;;;;;;;;;;;;;24.86;72.49;98766.97;1873430;76;20454;-63
2021/07/17 01:28:53;;;;;;;;;;;;;;;24.83;72.60;98771.09;1892802;76;20093;-64
2021/07/17 01:31:28;;;;;;;;;;;;;;;24.80;72.68;98776.49;1873459;76;20204;-62
2021/07/17 01:34:03;;;;;;;;;;;;;;;24.77;72.75;98770.05;1873381;76;20344;-62
2021/07/17 01:36:40;;;;;;;;;;;;;;;24.76;72.79;98770.16;1872364;76;20110;-63
2021/07/17 01:39:33;;;;;;;;;;;;;;;24.75;72.86;98763.99;1892443;76;20204;-64
2021/07/17 01:42:09;;;;;;;;;;;;;;;24.76;72.86;98774.95;1892804;76;20093;-66
2021/07/17 01:44:45;;;;;;;;;;;;;;;24.78;72.82;98769.14;1892748;76;20100;-65
2021/07/17 01:47:20;;;;;;;;;;;;;;;24.81;72.84;98770.77;1873430;76;20466;-65
2021/07/17 01:49:55;;;;;;;;;;;;;;;24.85;72.83;98772.31;1873379;76;20102;-64
2021/07/17 01:52:29;;;;;;;;;;;;;;;24.86;72.75;98772.25;1873478;76;20205;-63
2021/07/17 01:55:08;;;;;;;;;;;;;;;24.87;72.83;98777.05;1892757;76;20097;-64
2021/07/17 01:58:08;;;;;;;;;;;;;;;24.85;72.80;98773.16;1872579;76;20211;-62
2021/07/17 02:00:43;;;;;;;;;;;;;;;24.86;72.91;98776.67;1892817;76;20207;-64
2021/07/17 02:03:18;;;;;;;;;;;;;;;24.85;72.99;98773.16;1873397;76;20093;-64
2021/07/17 02:05:52;;;;;;;;;;;;;;;24.83;73.16;98773.72;1873634;76;20200;-63
2021/07/17 02:08:27;;;;;;;;;;;;;;;24.82;73.24;98775.95;1873469;76;20098;-64
2021/07/17 02:11:21;;;;;;;;;;;;;;;24.80;73.23;98771.22;1873437;76;20359;-64
2021/07/17 02:13:56;;;;;;;;;;;;;;;24.77;73.33;98769.20;1873491;76;20093;-64
2021/07/17 02:16:31;;;;;;;;;;;;;;;24.73;73.39;98773.80;1873579;76;20101;-63
2021/07/17 02:19:22;;;;;;;;;;;;;;;24.69;73.44;98777.51;1873264;76;20094;-64
2021/07/17 02:22:13;;;;;;;;;;;;;;;24.64;73.53;98780.37;1892764;76;20203;-64
2021/07/17 02:24:48;;;;;;;;;;;;;;;24.60;73.56;98783.23;1892834;76;20346;-65
2021/07/17 02:27:23;;;;;;;;;;;;;;;24.57;73.54;98780.75;1873287;76;20097;-63
2021/07/17 02:29:59;;;;;;;;;;;;;;;24.55;73.58;98777.33;1892506;76;20164;-63
2021/07/17 02:32:34;;;;;;;;;;;;;;;24.53;73.67;98781.84;1873227;76;20101;-62
2021/07/17 02:35:09;;;;;;;;;;;;;;;24.53;73.74;98781.84;1873485;76;20351;-64
2021/07/17 02:38:04;;;;;;;;;;;;;;;24.53;73.83;98778.73;1892759;76;20097;-63
2021/07/17 02:40:40;;;;;;;;;;;;;;;24.54;73.84;98776.48;1873384;76;20097;-64
2021/07/17 02:43:14;;;;;;;;;;;;;;;24.54;73.84;98772.98;1873486;76;20098;-64
2021/07/17 02:45:49;;;;;;;;;;;;;;;24.54;73.84;98768.56;1873490;76;20093;-64
2021/07/17 02:48:27;;;;;;;;;;;;;;;24.58;73.96;98770.13;1873411;76;20093;-63
2021/07/17 02:51:04;;;;;;;;;;;;;;;24.63;73.89;98777.83;1873491;76;20201;-63
2021/07/17 02:53:40;;;;;;;;;;;;;;;24.70;73.94;98772.61;1873242;76;20352;-64
2021/07/17 02:56:16;;;;;;;;;;;;;;;24.77;73.77;98770.53;1873228;76;20212;-63
2021/07/17 02:58:52;;;;;;;;;;;;;;;24.85;73.56;98772.31;1873264;76;20351;-63
2021/07/17 03:01:32;;;;;;;;;;;;;;;24.91;73.45;98776.83;1872627;76;20094;-63
2021/07/17 03:04:08;;;;;;;;;;;;;;;24.97;73.28;98773.02;1873301;76;20355;-64
2021/07/17 03:06:42;;;;;;;;;;;;;;;25.04;72.88;98774.41;1873419;76;20097;-64
2021/07/17 03:09:17;;;;;;;;;;;;;;;25.10;72.63;98775.88;1892800;76;20354;-63
2021/07/17 03:11:52;;;;;;;;;;;;;;;25.16;72.43;98772.94;1892806;76;20093;-64
2021/07/17 03:14:26;;;;;;;;;;;;;;;25.22;72.29;98775.28;1892899;76;20093;-63
2021/07/17 03:17:01;;;;;;;;;;;;;;;25.24;72.19;98768.14;1892775;76;20203;-64
2021/07/17 03:19:39;;;;;;;;;;;;;;;25.29;72.04;98775.36;1892796;76;20207;-63
2021/07/17 03:22:13;;;;;;;;;;;;;;;25.34;71.83;98766.72;1892817;76;20355;-62
2021/07/17 03:24:48;;;;;;;;;;;;;;;25.42;71.63;98764.15;1873499;76;20094;-64
2021/07/17 03:27:23;;;;;;;;;;;;;;;25.47;71.61;98762.11;1873422;76;20348;-64
2021/07/17 03:30:18;;;;;;;;;;;;;;;25.52;71.37;98765.37;1892716;76;20191;-64
2021/07/17 03:32:54;;;;;;;;;;;;;;;25.59;71.32;98764.55;1873266;76;20097;-63
2021/07/17 03:35:29;;;;;;;;;;;;;;;25.62;71.22;98758.65;1873485;76;20097;-64
2021/07/17 03:38:04;;;;;;;;;;;;;;;25.64;71.17;98758.08;1892776;76;20097;-63
2021/07/17 03:40:39;;;;;;;;;;;;;;;25.67;71.29;98764.54;1873471;76;20204;-63
2021/07/17 03:43:14;;;;;;;;;;;;;;;25.70;71.25;98763.52;1873500;76;20101;-64
2021/07/17 03:45:49;;;;;;;;;;;;;;;25.76;71.22;98757.41;1873327;76;20185;-64
2021/07/17 03:48:24;;;;;;;;;;;;;;;25.84;71.12;98760.11;1873572;76;20098;-63
2021/07/17 03:50:59;;;;;;;;;;;;;;;25.86;71.02;98758.27;1892817;76;20096;-62
2021/07/17 03:53:33;;;;;;;;;;;;;;;25.92;71.13;98763.22;1873459;76;20216;-64
2021/07/17 03:56:08;;;;;;;;;;;;;;;26.01;70.89;98752.14;1892813;76;20092;-62
2021/07/17 03:58:43;;;;;;;;;;;;;;;26.10;70.70;98758.22;1873380;76;20098;-63
2021/07/17 04:01:24;;;;;;;;;;;;;;;26.23;70.56;98762.83;1892775;76;20097;-64
2021/07/17 04:03:58;;;;;;;;;;;;;;;26.34;70.18;98765.73;1873515;76;20209;-65
2021/07/17 04:06:35;;;;;;;;;;;;;;;26.42;69.99;98771.44;1873284;76;20097;-63
2021/07/17 04:09:10;;;;;;;;;;;;;;;26.50;69.79;98771.84;1873442;76;20208;-65
2021/07/17 04:11:45;;;;;;;;;;;;;;;26.57;69.22;98777.20;1873411;76;20094;-63
2021/07/17 04:14:27;;;;;;;;;;;;;;;26.61;68.68;98785.36;1893064;76;20183;-62
2021/07/17 04:17:02;;;;;;;;;;;;;;;26.67;68.13;98779.33;1873440;76;20098;-63
2021/07/17 04:19:37;;;;;;;;;;;;;;;26.73;67.75;98774.98;1873465;76;20204;-64
2021/07/17 04:22:31;;;;;;;;;;;;;;;26.79;67.65;98783.89;1873414;76;20140;-64
2021/07/17 04:25:07;;;;;;;;;;;;;;;26.85;67.54;98785.72;1892791;76;20219;-64
2021/07/17 04:27:42;;;;;;;;;;;;;;;26.94;67.27;98788.28;1873456;76;20204;-63
2021/07/17 04:30:16;;;;;;;;;;;;;;;27.02;66.79;98789.16;1873454;76;20089;-64
2021/07/17 04:32:51;;;;;;;;;;;;;;;27.06;66.48;98793.34;1873474;76;20093;-64
2021/07/17 04:35:26;;;;;;;;;;;;;;;27.09;66.34;98783.03;1892807;76;20305;-65
2021/07/17 04:38:00;;;;;;;;;;;;;;;27.13;66.32;98785.41;1892838;76;20093;-65
2021/07/17 04:40:41;;;;;;;;;;;;;;;27.15;65.92;98780.03;1892891;76;20350;-67
2021/07/17 04:43:21;;;;;;;;;;;;;;;27.20;65.62;98792.09;1892789;76;20208;-63
2021/07/17 04:45:56;;;;;;;;;;;;;;;27.31;65.50;98783.48;1892804;76;20183;-63
2021/07/17 04:48:31;;;;;;;;;;;;;;;27.48;65.04;98788.61;1873492;76;20094;-64
2021/07/17 04:51:06;;;;;;;;;;;;;;;27.64;64.45;98788.52;1892808;76;20093;-62
2021/07/17 04:53:41;;;;;;;;;;;;;;;27.77;63.91;98787.27;1873417;76;20094;-63
2021/07/17 04:56:35;;;;;;;;;;;;;;;27.93;63.39;98790.69;1873493;76;20204;-64
2021/07/17 04:59:10;;;;;;;;;;;;;;;28.03;63.61;98788.79;1873397;76;20466;-65
2021/07/17 05:01:45;;;;;;;;;;;;;;;28.07;62.93;98796.46;1873389;76;20093;-65
2021/07/17 05:04:19;;;;;;;;;;;;;;;28.15;62.61;98795.97;1892797;76;20350;-63
2021/07/17 05:06:54;;;;;;;;;;;;;;;28.18;62.04;98794.92;1873388;76;20097;-64
2021/07/17 05:09:29;;;;;;;;;;;;;;;28.26;61.94;98800.10;1873611;76;20462;-63
2021/07/17 05:12:04;;;;;;;;;;;;;;;28.37;61.65;98795.45;1892802;76;20211;-64
2021/07/17 05:14:38;;;;;;;;;;;;;;;28.49;60.86;98799.13;1873476;76;20351;-65
2021/07/17 05:17:13;;;;;;;;;;;;;;;28.67;60.54;98807.20;1873469;76;20102;-64
2021/07/17 05:19:48;;;;;;;;;;;;;;;28.81;59.79;98809.45;1892809;76;20097;-66
2021/07/17 05:22:23;;;;;;;;;;;;;;;28.91;58.94;98805.22;1873291;76;20101;-64
2021/07/17 05:25:00;;;;;;;;;;;;;;;29.08;58.36;98811.62;1873251;76;20098;-64
2021/07/17 05:27:34;;;;;;;;;;;;;;;29.21;57.35;98812.48;1873491;76;20347;-65
2021/07/17 05:30:10;;;;;;;;;;;;;;;29.37;56.44;98811.42;1873486;76;20097;-65
2021/07/17 05:33:03;;;;;;;;;;;;;;;29.62;55.85;98818.08;1873449;76;20291;-65
2021/07/17 05:35:39;;;;;;;;;;;;;;;29.86;55.17;98815.52;1873343;76;20098;-63
2021/07/17 05:38:38;;;;;;;;;;;;;;;30.20;54.13;98825.55;1892763;76;20211;-64
2021/07/17 05:41:13;;;;;;;;;;;;;;;30.48;53.21;98819.98;1892831;76;20203;-64
2021/07/17 05:43:48;;;;;;;;;;;;;;;30.75;52.50;98824.21;1892734;76;20101;-66
2021/07/17 05:46:23;;;;;;;;;;;;;;;30.95;51.76;98825.91;1873424;76;20093;-64
2021/07/17 05:48:58;;;;;;;;;;;;;;;31.14;51.41;98824.86;1873416;76;20097;-65
2021/07/17 05:51:33;;;;;;;;;;;;;;;31.40;50.97;98831.38;1892810;76;20351;-65
2021/07/17 05:54:07;;;;;;;;;;;;;;;31.70;49.98;98838.36;1873504;76;20098;-64
2021/07/17 05:56:42;;;;;;;;;;;;;;;32.19;48.66;98835.83;1873560;76;20093;-67
2021/07/17 05:59:16;;;;;;;;;;;;;;;32.73;47.32;98848.00;1873474;76;20093;-66
2021/07/17 06:01:52;;;;;;;;;;;;;;;33.02;46.57;98843.76;1873342;76;20097;-65
2021/07/17 06:04:27;;;;;;;;;;;;;;;33.24;46.26;98847.31;1873438;76;20348;-65
2021/07/17 06:07:01;;;;;;;;;;;;;;;33.82;45.26;98845.02;1892789;76;20208;-64
2021/07/17 06:09:37;;;;;;;;;;;;;;;34.34;43.58;98848.95;1873289;76;20141;-65
2021/07/17 06:12:12;;;;;;;;;;;;;;;34.74;41.93;98851.59;1892797;76;20450;-64
2021/07/17 06:14:45;;;;;;;;;;;;;;;34.99;41.50;98853.38;1873724;76;20094;-65
2021/07/17 06:17:19;;;;;;;;;;;;;;;35.53;41.33;98847.89;1892785;76;20355;-64
2021/07/17 06:19:54;;;;;;;;;;;;;;;35.88;40.85;98859.84;1873463;76;20212;-64
2021/07/17 06:22:28;;;;;;;;;;;;;;;36.35;39.65;98857.09;1837847;77;20353;-68
2021/07/17 06:25:04;;;;;;;;;;;;;;;36.75;38.08;98866.63;1892817;76;20211;-67
2021/07/17 06:27:57;;;;;;;;;;;;;;;37.29;37.00;98868.81;1892791;76;20096;-63
2021/07/17 06:30:32;;;;;;;;;;;;;;;38.17;35.92;98874.13;1873437;76;20097;-64
2021/07/17 06:33:06;;;;;;;;;;;;;;;39.40;34.28;98870.89;1873466;76;20208;-65
2021/07/17 06:35:46;;;;;;;;;;;;;;;40.50;32.13;98875.15;1872625;76;20212;-64
2021/07/17 06:38:21;;;;;;;;;;;;;;;41.20;31.20;98878.29;1873403;76;20093;-66
2021/07/17 06:40:56;;;;;;;;;;;;;;;41.87;30.63;98885.61;1873466;76;20208;-65
2021/07/17 06:43:30;;;;;;;;;;;;;;;42.95;29.14;98888.67;1873470;76;20098;-65
2021/07/17 06:46:04;;;;;;;;;;;;;;;44.06;27.45;98902.06;1892735;76;20204;-65
2021/07/17 06:48:38;;;;;;;;;;;;;;;44.97;26.25;98903.19;1892768;76;20097;-65
2021/07/17 06:51:33;;;;;;;;;;;;;;;45.96;24.73;98900.72;1873555;76;20446;-66
2021/07/17 06:54:08;;;;;;;;;;;;;;;45.87;24.39;98902.25;1892783;76;20208;-66
2021/07/17 06:57:01;;;;;;;;;;;;;;;45.68;24.19;98900.42;1873361;76;20255;-63
2021/07/17 06:59:36;;;;;;;;;;;;;;;45.41;24.39;98905.02;1892716;76;20208;-65
2021/07/17 07:02:29;;;;;;;;;;;;;;;45.77;23.81;98903.22;1873363;76;20220;-65
2021/07/17 07:05:05;;;;;;;;;;;;;;;46.33;23.18;98901.36;1892898;76;20450;-63
2021/07/17 07:07:46;;;;;;;;;;;;;;;47.06;22.40;98903.37;1872625;76;20098;-67
2021/07/17 07:10:39;;;;;;;;;;;;;;;47.52;21.93;98909.89;1873444;76;20355;-66
2021/07/17 07:13:16;;;;;;;;;;;;;;;47.66;21.35;98907.02;1873479;76;20189;-68
2021/07/17 07:16:10;;;;;;;;;;;;;;;47.31;21.89;98900.70;1887887;76;20235;-66
2021/07/17 07:19:03;;;;;;;;;;;;;;;47.57;21.26;98901.84;1873386;76;20098;-64
2021/07/17 07:21:38;;;;;;;;;;;;;;;47.07;21.69;98900.44;1873590;76;20212;-66
2021/07/17 07:24:32;;;;;;;;;;;;;;;46.38;21.90;98901.22;1873423;76;20208;-64
2021/07/17 07:27:06;;;;;;;;;;;;;;;45.99;22.44;98909.83;1892782;76;20465;-64
2021/07/17 07:29:59;;;;;;;;;;;;;;;45.96;22.37;98907.54;1873525;76;20101;-65
2021/07/17 07:32:53;;;;;;;;;;;;;;;46.01;21.74;98902.28;1866301;75;20247;-67
2021/07/17 07:35:28;;;;;;;;;;;;;;;45.39;22.71;98899.77;1873571;76;20216;-66
2021/07/17 07:38:08;;;;;;;;;;;;;;;45.06;22.96;98892.41;1892773;76;20346;-67
2021/07/17 07:40:43;;;;;;;;;;;;;;;45.28;22.66;98893.59;1892801;76;20093;-65
2021/07/17 07:43:18;;;;;;;;;;;;;;;45.33;21.96;98896.53;1892786;76;20093;-65
2021/07/17 07:45:56;;;;;;;;;;;;;;;45.05;22.03;98892.08;1873483;76;20454;-66
2021/07/17 07:48:32;;;;;;;;;;;;;;;44.82;22.36;98898.44;1892723;76;20354;-65
2021/07/17 07:51:06;;;;;;;;;;;;;;;43.97;23.35;98888.30;1873475;76;20212;-66
2021/07/17 07:53:42;;;;;;;;;;;;;;;43.17;24.00;98874.58;1873294;76;20097;-65
2021/07/17 07:56:16;;;;;;;;;;;;;;;42.25;25.12;98878.75;1892757;76;20097;-67
2021/07/17 07:58:51;;;;;;;;;;;;;;;41.15;26.62;98865.81;1873401;76;20093;-65
2021/07/17 08:01:26;;;;;;;;;;;;;;;41.00;26.76;98868.43;1873485;76;20201;-67
2021/07/17 08:04:21;;;;;;;;;;;;;;;41.69;26.41;98877.02;1892723;76;20450;-65
2021/07/17 08:06:55;;;;;;;;;;;;;;;42.30;25.49;98879.03;1892803;76;20203;-66
2021/07/17 08:09:48;;;;;;;;;;;;;;;42.80;25.20;98874.66;1873439;76;20208;-66
2021/07/17 08:12:29;;;;;;;;;;;;;;;42.49;25.31;98866.27;1872626;76;20216;-67
2021/07/17 08:15:05;;;;;;;;;;;;;;;42.20;26.08;98865.75;1892787;76;20207;-63
2021/07/17 08:17:40;;;;;;;;;;;;;;;42.38;25.83;98877.59;1892799;76;20343;-67
2021/07/17 08:20:16;;;;;;;;;;;;;;;42.59;25.54;98877.30;1873461;76;20098;-67
2021/07/17 08:23:11;;;;;;;;;;;;;;;42.26;25.45;98873.64;1873288;76;20367;-68
2021/07/17 08:25:52;;;;;;;;;;;;;;;41.64;26.39;98854.01;1872606;76;20212;-66
2021/07/17 08:28:27;;;;;;;;;;;;;;;41.25;27.00;98859.63;1892745;76;20101;-66
2021/07/17 08:31:02;;;;;;;;;;;;;;;40.21;28.26;98853.63;1873502;76;20351;-66
2021/07/17 08:33:39;;;;;;;;;;;;;;;39.24;29.57;98847.42;1873587;76;20270;-67
2021/07/17 08:36:13;;;;;;;;;;;;;;;39.06;30.14;98850.30;1892781;76;20101;-68
2021/07/17 08:38:48;;;;;;;;;;;;;;;39.68;29.40;98845.17;1873487;76;20212;-64
2021/07/17 08:41:26;;;;;;;;;;;;;;;40.44;28.79;98848.83;1873470;76;20209;-67
2021/07/17 08:43:59;;;;;;;;;;;;;;;41.20;27.74;98852.05;1873762;76;20093;-68
2021/07/17 08:46:36;;;;;;;;;;;;;;;41.12;27.70;98846.70;1873347;76;20098;-67
2021/07/17 08:49:11;;;;;;;;;;;;;;;41.67;26.89;98852.80;1892801;76;20211;-66
2021/07/17 08:51:46;;;;;;;;;;;;;;;41.40;27.09;98844.77;1892804;76;20096;-65
2021/07/17 08:54:22;;;;;;;;;;;;;;;40.70;27.80;98842.59;1892804;76;20092;-65
2021/07/17 08:56:57;;;;;;;;;;;;;;;40.47;28.38;98837.13;1873461;76;20093;-67
2021/07/17 08:59:32;;;;;;;;;;;;;;;40.62;28.08;98842.62;1873394;76;20101;-65
2021/07/17 09:02:07;;;;;;;;;;;;;;;40.76;28.08;98831.06;1873458;76;20355;-67
2021/07/17 09:04:44;;;;;;;;;;;;;;;40.34;28.52;98836.36;1873283;76;20097;-65
2021/07/17 09:07:18;;;;;;;;;;;;;;;40.14;28.78;98833.72;1892781;76;20446;-63
2021/07/17 09:09:51;;;;;;;;;;;;;;;40.07;29.03;98833.57;1892793;76;20203;-65
2021/07/17 09:12:26;;;;;;;;;;;;;;;40.03;28.95;98827.36;1873489;76;20097;-64
2021/07/17 09:15:00;;;;;;;;;;;;;;;39.77;29.83;98828.45;1873412;76;20101;-64
2021/07/17 09:17:35;;;;;;;;;;;;;;;39.53;29.92;98829.84;1873493;76;20148;-68
2021/07/17 09:20:09;;;;;;;;;;;;;;;39.28;29.08;98829.84;1892783;76;20215;-66
2021/07/17 09:22:44;;;;;;;;;;;;;;;38.79;30.35;98821.73;1873448;76;20462;-67
2021/07/17 09:25:18;;;;;;;;;;;;;;;38.46;31.19;98817.64;1873454;76;20208;-65
2021/07/17 09:28:21;;;;;;;;;;;;;;;38.35;31.49;98813.38;1892862;76;20212;-66
2021/07/17 09:30:58;;;;;;;;;;;;;;;38.07;31.25;98811.44;1873399;76;20204;-66
2021/07/17 09:33:51;;;;;;;;;;;;;;;37.59;31.59;98815.55;1873447;76;20352;-66
2021/07/17 09:37:00;;;;;;;;;;;;;;;37.13;32.17;98808.16;1873387;76;20212;-64
2021/07/17 09:39:37;;;;;;;;;;;;;;;36.81;32.22;98808.18;1873474;76;20212;-65
2021/07/17 09:42:32;;;;;;;;;;;;;;;36.42;32.91;98800.39;1873405;76;20384;-65
2021/07/17 09:45:08;;;;;;;;;;;;;;;36.14;33.05;98796.05;1873449;76;20097;-65
2021/07/17 09:47:42;;;;;;;;;;;;;;;35.99;33.41;98799.70;1873609;76;20423;-63
2021/07/17 09:50:19;;;;;;;;;;;;;;;35.82;33.00;98794.61;1873564;76;20208;-66
2021/07/17 09:52:53;;;;;;;;;;;;;;;35.68;33.41;98796.46;1880352;76;20361;-63
2021/07/17 09:55:47;;;;;;;;;;;;;;;35.42;33.75;98787.69;1873398;76;20101;-67
2021/07/17 09:58:27;;;;;;;;;;;;;;;35.15;34.02;98781.23;1892764;76;20100;-62
2021/07/17 10:01:19;;;;;;;;;;;;;;;34.89;34.44;98783.65;1872616;76;20093;-66
2021/07/17 10:04:04;;;;;;;;;;;;;;;34.80;34.89;98777.79;1873507;76;20094;-64
2021/07/17 10:06:41;;;;;;;;;;;;;;;34.69;35.33;98772.09;1873425;76;20220;-65
2021/07/17 10:09:20;;;;;;;;;;;;;;;34.55;35.34;98771.12;1892788;76;20211;-68
2021/07/17 10:12:00;;;;;;;;;;;;;;;34.35;35.24;98769.79;1873470;76;20212;-67
2021/07/17 10:14:54;;;;;;;;;;;;;;;34.21;35.49;98771.52;1892778;76;20207;-65
2021/07/17 10:17:34;;;;;;;;;;;;;;;34.15;35.20;98766.73;1873285;76;20097;-65
2021/07/17 10:20:11;;;;;;;;;;;;;;;34.10;35.40;98766.30;1873493;76;20360;-65
2021/07/17 10:23:11;;;;;;;;;;;;;;;34.18;35.28;98758.91;1892933;76;20216;-63
2021/07/17 10:25:46;;;;;;;;;;;;;;;34.18;34.23;98753.05;1892768;76;20105;-65
2021/07/17 10:28:27;;;;;;;;;;;;;;;34.15;34.77;98755.52;1872610;76;20220;-63
2021/07/17 10:31:02;;;;;;;;;;;;;;;34.23;34.74;98753.98;1873484;76;20093;-64
2021/07/17 10:33:36;;;;;;;;;;;;;;;34.28;34.97;98751.73;1873506;76;20212;-65
2021/07/17 10:36:18;;;;;;;;;;;;;;;34.30;34.32;98737.21;1892618;76;20215;-65
2021/07/17 10:38:56;;;;;;;;;;;;;;;34.34;34.15;98741.28;1892762;76;20454;-65
2021/07/17 10:41:32;;;;;;;;;;;;;;;34.35;33.95;98732.28;1873690;76;20200;-64
2021/07/17 10:44:14;;;;;;;;;;;;;;;34.26;33.76;98735.78;1892755;76;20116;-66
2021/07/17 10:47:08;;;;;;;;;;;;;;;34.28;33.97;98737.84;1873455;76;20208;-66
2021/07/17 10:49:55;;;;;;;;;;;;;;;34.28;32.60;98725.78;1873330;76;20098;-63
2021/07/17 10:52:50;;;;;;;;;;;;;;;34.27;34.13;98729.45;1873331;76;20101;-68
2021/07/17 10:55:45;;;;;;;;;;;;;;;34.40;34.53;98728.31;1873232;76;20355;-64
2021/07/17 10:58:38;;;;;;;;;;;;;;;34.39;32.23;98719.44;1873416;76;20212;-66
2021/07/17 11:01:14;;;;;;;;;;;;;;;34.41;32.20;98713.95;1873494;76;20208;-68
2021/07/17 11:03:51;;;;;;;;;;;;;;;34.47;31.76;98724.93;1873276;76;20204;-66
2021/07/17 11:06:31;;;;;;;;;;;;;;;34.52;31.45;98723.17;1892764;76;20203;-66
2021/07/17 11:09:30;;;;;;;;;;;;;;;34.64;31.36;98707.33;1889519;76;20227;-65
2021/07/17 11:12:26;;;;;;;;;;;;;;;34.74;31.29;98702.80;1865878;76;20229;-66
2021/07/17 11:15:23;;;;;;;;;;;;;;;34.93;31.15;98691.18;1856265;76;20234;-67
2021/07/17 11:18:19;;;;;;;;;;;;;;;35.00;30.82;98694.14;1875036;76;20120;-64
2021/07/17 11:20:59;;;;;;;;;;;;;;;35.12;30.04;98687.65;1862358;76;20228;-64
2021/07/17 11:23:36;;;;;;;;;;;;;;;35.20;30.22;98678.87;1816172;77;20485;-65
2021/07/17 11:26:18;;;;;;;;;;;;;;;35.29;29.95;98679.81;1856424;76;20120;-66
2021/07/17 11:28:55;;;;;;;;;;;;;;;35.42;30.23;98672.29;1853994;76;20141;-65
2021/07/17 11:31:43;;;;;;;;;;;;;;;35.52;30.44;98670.88;1869725;76;20382;-65
2021/07/17 11:34:22;;;;;;;;;;;;;;;35.59;29.46;98671.50;1841728;76;20118;-66
2021/07/17 11:37:06;;;;;;;;;;;;;;;35.69;29.57;98679.50;1892750;76;20208;-65
2021/07/17 11:39:43;;;;;;;;;;;;;;;35.85;28.99;98671.65;1873675;76;20101;-65
2021/07/17 11:42:19;;;;;;;;;;;;;;;35.77;29.64;98670.70;1892776;76;20208;-64
2021/07/17 11:44:56;;;;;;;;;;;;;;;35.86;30.14;98665.77;1892762;76;20355;-64
2021/07/17 11:47:31;;;;;;;;;;;;;;;36.02;29.29;98657.87;1873631;76;20212;-65
2021/07/17 11:50:06;;;;;;;;;;;;;;;35.95;29.64;98646.07;1892788;76;20097;-65
2021/07/17 11:52:40;;;;;;;;;;;;;;;35.99;30.06;98649.28;1873474;76;20339;-66
2021/07/17 11:55:16;;;;;;;;;;;;;;;36.02;29.32;98652.49;1873308;76;20101;-64
2021/07/17 11:57:51;;;;;;;;;;;;;;;35.97;28.79;98654.80;1892797;76;20096;-66
2021/07/17 12:00:26;;;;;;;;;;;;;;;35.94;28.48;98675.25;1873464;76;20347;-66
2021/07/17 12:03:03;;;;;;;;;;;;;;;35.99;28.88;98685.55;1873246;76;20359;-65
2021/07/17 12:05:37;;;;;;;;;;;;;;;36.11;28.72;98699.64;1873471;76;20098;-69
2021/07/17 12:08:30;;;;;;;;;;;;;;;35.95;27.84;98693.08;1892723;76;20442;-67
2021/07/17 12:11:09;;;;;;;;;;;;;;;35.79;27.78;98696.91;1862264;76;20230;-66
2021/07/17 12:13:43;;;;;;;;;;;;;;;35.58;27.64;98697.14;1855276;76;20145;-66
2021/07/17 12:16:21;;;;;;;;;;;;;;;35.29;27.56;98693.22;1854747;76;20117;-63
2021/07/17 12:19:21;;;;;;;;;;;;;;;34.87;28.64;98688.25;1843411;76;20321;-66
2021/07/17 12:21:57;;;;;;;;;;;;;;;34.55;29.87;98672.83;1857762;76;20236;-67
2021/07/17 12:24:31;;;;;;;;;;;;;;;34.20;31.58;98660.52;1855941;76;20226;-66
2021/07/17 12:27:06;;;;;;;;;;;;;;;33.60;35.91;98650.66;1865779;76;20233;-64
2021/07/17 12:29:51;;;;;;;;;;;;;;;32.93;38.49;98641.34;1859481;76;20363;-64
2021/07/17 12:32:25;;;;;;;;;;;;;;;32.42;39.87;98635.45;1873493;76;20102;-64
2021/07/17 12:35:07;;;;;;;;;;;;;;;32.10;40.55;98624.30;1892741;76;20379;-64
2021/07/17 12:37:42;;;;;;;;;;;;;;;31.91;41.56;98628.12;1873460;76;20093;-64
2021/07/17 12:40:17;;;;;;;;;;;;;;;31.62;42.38;98629.16;1873385;76;20097;-64
2021/07/17 12:43:11;;;;;;;;;;;;;;;31.27;43.31;98648.33;1892746;76;20200;-64
2021/07/17 12:46:02;;;;;;;;;;;;;;;31.06;43.95;98664.67;1893091;76;20231;-63
2021/07/17 12:49:09;;;;;;;;;;;;;;;30.93;44.23;98665.63;1872567;76;20094;-64
2021/07/17 12:51:55;;;;;;;;;;;;;;;30.63;45.06;98671.95;1873482;76;20208;-64
2021/07/17 12:54:30;;;;;;;;;;;;;;;30.27;46.26;98675.11;1873371;76;20102;-64
2021/07/17 12:57:11;;;;;;;;;;;;;;;29.99;46.79;98674.94;1872624;76;20431;-67
2021/07/17 12:59:45;;;;;;;;;;;;;;;29.83;47.22;98676.55;1873490;76;20098;-65
2021/07/17 13:02:21;;;;;;;;;;;;;;;29.66;48.05;98677.77;1892819;76;20097;-66
2021/07/17 13:04:55;;;;;;;;;;;;;;;29.57;48.13;98685.06;1873501;76;20093;-64
2021/07/17 13:07:36;;;;;;;;;;;;;;;29.55;48.27;98677.19;1872628;76;20101;-66
2021/07/17 13:10:12;;;;;;;;;;;;;;;29.54;48.25;98660.88;1892785;76;20097;-65
2021/07/17 13:12:46;;;;;;;;;;;;;;;29.54;48.61;98663.53;1873494;76;20097;-63
2021/07/17 13:15:27;;;;;;;;;;;;;;;29.61;48.59;98671.41;1872637;76;20094;-65
2021/07/17 13:18:19;;;;;;;;;;;;;;;29.62;49.04;98683.77;1873487;76;20217;-64
2021/07/17 13:21:07;;;;;;;;;;;;;;;29.60;49.37;98688.83;1873260;76;20098;-65
2021/07/17 13:23:56;;;;;;;;;;;;;;;29.59;49.62;98687.11;1873589;76;20212;-69
2021/07/17 13:26:59;;;;;;;;;;;;;;;29.64;49.65;98673.00;1872617;76;20455;-67
2021/07/17 13:29:54;;;;;;;;;;;;;;;29.78;49.71;98664.07;1873301;76;20102;-65
2021/07/17 13:32:49;;;;;;;;;;;;;;;29.89;49.51;98673.44;1870873;75;20172;-66
2021/07/17 13:35:30;;;;;;;;;;;;;;;29.97;48.87;98667.09;1873464;76;20094;-66
2021/07/17 13:38:10;;;;;;;;;;;;;;;29.89;48.82;98690.73;1873272;76;20101;-64
2021/07/17 13:40:50;;;;;;;;;;;;;;;29.72;47.99;98687.98;1873320;76;20356;-63
2021/07/17 13:43:28;;;;;;;;;;;;;;;29.62;47.64;98695.73;1873492;76;20204;-65
2021/07/17 13:46:24;;;;;;;;;;;;;;;29.50;48.06;98684.64;1873311;76;20097;-67
2021/07/17 13:49:11;;;;;;;;;;;;;;;29.33;48.57;98704.92;1892794;76;20101;-65
2021/07/17 13:51:46;;;;;;;;;;;;;;;29.00;48.80;98708.94;1873394;76;20093;-67